createdAt,value
2023-02-25T00:01:26.710Z,8.23
2023-02-25T00:06:13.632Z,10.43
2023-02-25T00:11:00.732Z,9.77
2023-02-25T00:15:48.081Z,10.97
2023-02-25T00:20:34.572Z,9.87
2023-02-25T00:25:22.710Z,10.10
2023-02-25T00:30:11.876Z,9.93
2023-02-25T00:34:59.604Z,9.00
2023-02-25T00:39:48.941Z,10.20
2023-02-25T00:44:34.347Z,11.67
2023-02-25T00:49:32.124Z,12.53
2023-02-25T00:54:28.577Z,12.50
2023-02-25T00:59:14.483Z,14.80
2023-02-25T01:04:07.877Z,13.47
2023-02-25T01:08:51.809Z,14.03
2023-02-25T01:13:38.925Z,13.40
2023-02-25T01:18:28.345Z,13.47
2023-02-25T01:23:14.839Z,12.23
2023-02-25T01:28:03.032Z,12.33
2023-02-25T01:32:50.665Z,9.73
2023-02-25T01:37:54.451Z,12.93
2023-02-25T01:42:44.018Z,12.67
2023-02-25T01:47:35.925Z,11.33
2023-02-25T01:52:24.014Z,10.80
2023-02-25T01:57:10.999Z,13.10
2023-02-25T02:01:54.642Z,9.93
2023-02-25T02:06:45.672Z,8.60
2023-02-25T02:11:33.179Z,8.37
2023-02-25T02:16:32.808Z,11.33
2023-02-25T02:22:00.570Z,9.07
2023-02-25T02:27:00.811Z,4.60
2023-02-25T02:32:10.686Z,8.00
2023-02-25T02:37:08.364Z,6.63
2023-02-25T02:42:00.548Z,10.73
2023-02-25T02:46:49.986Z,6.93
2023-02-25T02:51:39.160Z,8.40
2023-02-25T02:56:26.250Z,10.10
2023-02-25T03:01:13.962Z,8.37
2023-02-25T03:05:57.513Z,6.47
2023-02-25T03:10:45.427Z,13.73
2023-02-25T03:15:34.968Z,6.30
2023-02-25T03:20:31.213Z,4.77
2023-02-25T03:25:19.604Z,7.10
2023-02-25T03:30:34.441Z,3.83
2023-02-25T03:35:23.654Z,5.63
2023-02-25T03:40:29.744Z,6.27
2023-02-25T03:45:14.561Z,6.53
2023-02-25T03:50:17.753Z,5.13
2023-02-25T03:55:09.719Z,6.97
2023-02-25T03:59:56.563Z,6.83
2023-02-25T04:04:42.177Z,4.60
2023-02-25T04:09:46.503Z,7.00
2023-02-25T04:14:38.709Z,6.30
2023-02-25T04:19:22.349Z,7.97
2023-02-25T04:24:10.819Z,7.10
2023-02-25T04:29:13.489Z,4.83
2023-02-25T04:34:01.735Z,2.80
2023-02-25T04:38:51.041Z,2.20
2023-02-25T04:43:37.436Z,4.50
2023-02-25T04:48:25.251Z,4.27
2023-02-25T04:53:14.682Z,4.67
2023-02-25T04:58:01.334Z,3.80
2023-02-25T05:02:49.318Z,2.27
2023-02-25T05:07:36.766Z,2.43
2023-02-25T05:12:27.476Z,3.57
2023-02-25T05:17:27.804Z,3.77
2023-02-25T05:22:17.179Z,2.83
2023-02-25T05:27:09.114Z,2.50
2023-02-25T05:32:26.546Z,2.80
2023-02-25T05:37:16.012Z,2.87
2023-02-25T05:42:03.972Z,3.13
2023-02-25T05:46:50.680Z,3.60
2023-02-25T05:51:37.876Z,3.07
2023-02-25T05:56:30.198Z,2.50
2023-02-25T06:01:18.724Z,4.70
2023-02-25T06:06:02.602Z,2.47
2023-02-25T06:11:07.440Z,3.87
2023-02-25T06:15:53.877Z,8.27
2023-02-25T06:25:46.549Z,4.30
2023-02-25T06:30:34.030Z,6.97
2023-02-25T06:35:25.977Z,9.27
2023-02-25T06:40:23.614Z,6.50
2023-02-25T06:45:15.734Z,7.20
2023-02-25T06:50:32.221Z,5.63
2023-02-25T06:55:43.356Z,8.30
2023-02-25T07:00:27.120Z,7.07
2023-02-25T07:05:14.248Z,8.17
2023-02-25T07:10:01.080Z,6.30
2023-02-25T07:14:52.548Z,11.27
2023-02-25T07:19:39.050Z,7.57
2023-02-25T07:24:24.572Z,9.70
2023-02-25T07:29:34.896Z,4.70
2023-02-25T07:34:20.123Z,6.63
2023-02-25T07:39:09.135Z,6.13
2023-02-25T07:43:52.673Z,8.07
2023-02-25T07:48:47.523Z,5.27
2023-02-25T07:53:34.686Z,4.93
2023-02-25T07:58:18.424Z,8.03
2023-02-25T08:03:05.393Z,6.37
2023-02-25T08:07:58.427Z,4.97
2023-02-25T08:12:43.708Z,8.73
2023-02-25T08:17:31.348Z,6.63
2023-02-25T08:22:18.063Z,6.93
2023-02-25T08:27:07.422Z,8.23
2023-02-25T08:31:55.425Z,5.77
2023-02-25T08:36:41.892Z,9.53
2023-02-25T08:41:33.170Z,5.73
2023-02-25T08:46:17.006Z,6.17
2023-02-25T08:51:09.238Z,4.13
2023-02-25T08:55:53.863Z,4.47
2023-02-25T09:00:41.658Z,2.83
2023-02-25T09:11:24.359Z,1.60
2023-02-25T09:21:29.004Z,2.23
2023-02-25T09:27:04.778Z,4.27
2023-02-25T09:43:28.147Z,4.10
2023-02-25T09:48:31.211Z,3.77
2023-02-25T09:53:32.923Z,2.47
2023-02-25T09:58:48.921Z,8.53
2023-02-25T10:04:46.988Z,2.70
2023-02-25T10:09:50.932Z,2.07
2023-02-25T10:15:57.606Z,3.60
2023-02-25T10:21:19.581Z,1.60
2023-02-25T10:32:57.880Z,2.80
2023-02-25T10:44:28.821Z,7.23
2023-02-25T10:50:19.859Z,2.57
2023-02-25T11:02:02.229Z,3.23
2023-02-25T11:13:20.015Z,2.23
2023-02-25T11:19:20.300Z,2.53
2023-02-25T11:36:38.024Z,3.50
2023-02-25T11:54:52.563Z,4.80
2023-02-25T11:59:55.345Z,4.57
2023-02-25T12:05:03.374Z,3.37
2023-02-25T12:10:20.405Z,2.87
2023-02-25T12:15:42.694Z,4.10
2023-02-25T12:21:29.549Z,2.73
2023-02-25T12:26:52.803Z,2.80
2023-02-25T12:33:46.117Z,2.93
2023-02-25T12:39:25.925Z,2.83
2023-02-25T12:45:01.931Z,2.37
2023-02-25T12:50:35.908Z,3.50
2023-02-25T12:56:14.124Z,2.23
2023-02-25T13:01:49.678Z,1.53
2023-02-25T13:20:28.949Z,1.70
2023-02-25T13:26:35.985Z,1.37
2023-02-25T13:31:56.569Z,2.33
2023-02-25T13:37:16.885Z,2.10
2023-02-25T13:42:32.188Z,1.20
2023-02-25T13:48:12.380Z,3.23
2023-02-25T13:53:35.286Z,1.23
2023-02-25T13:59:25.538Z,1.27
2023-02-25T14:04:46.125Z,2.37
2023-02-25T14:10:02.988Z,0.80
2023-02-25T14:15:35.984Z,0.87
2023-02-25T14:20:44.325Z,0.80
2023-02-25T14:26:01.468Z,2.20
2023-02-25T14:31:11.447Z,1.03
2023-02-25T14:36:27.789Z,1.90
2023-02-25T14:41:45.166Z,0.50
2023-02-25T14:53:46.443Z,1.47
2023-02-25T15:11:55.992Z,2.20
2023-02-25T15:17:34.624Z,0.70
2023-02-25T15:23:19.354Z,4.53
2023-02-25T15:28:40.352Z,1.33
2023-02-25T15:39:56.565Z,1.17
2023-02-25T15:44:47.849Z,1.33
2023-02-25T15:49:46.476Z,2.33
2023-02-25T16:02:33.600Z,1.00
2023-02-25T16:07:56.259Z,1.17
2023-02-25T16:12:44.295Z,0.73
2023-02-25T16:17:46.645Z,0.97
2023-02-25T16:22:36.729Z,2.17
2023-02-25T16:27:43.327Z,1.63
2023-02-25T16:32:47.166Z,2.17
2023-02-25T16:38:02.773Z,2.37
2023-02-25T16:42:50.491Z,1.00
2023-02-25T16:47:40.129Z,2.73
2023-02-25T16:52:32.012Z,1.77
2023-02-25T16:57:34.221Z,1.00
2023-02-25T17:02:33.438Z,1.50
2023-02-25T17:07:51.896Z,1.23
2023-02-25T17:13:14.636Z,2.07
2023-02-25T17:18:34.073Z,2.33
2023-02-25T17:23:22.004Z,1.10
2023-02-25T17:34:17.131Z,1.40
2023-02-25T17:51:41.634Z,2.37
2023-02-25T17:56:28.254Z,1.23
2023-02-25T18:01:30.917Z,2.03
2023-02-25T18:06:35.815Z,2.37
2023-02-25T18:11:27.405Z,1.70
2023-02-25T18:16:40.518Z,2.90
2023-02-25T18:21:49.975Z,2.93
2023-02-25T18:26:35.578Z,1.87
2023-02-25T18:31:22.585Z,1.47
2023-02-25T18:36:25.862Z,2.57
2023-02-25T18:41:13.044Z,1.50
2023-02-25T18:46:05.630Z,1.67
2023-02-25T18:50:49.227Z,3.33
2023-02-25T18:55:38.228Z,1.43
2023-02-25T19:00:27.363Z,2.17
2023-02-25T19:05:12.905Z,1.40
2023-02-25T19:10:02.343Z,1.47
2023-02-25T19:14:51.583Z,1.60
2023-02-25T19:19:35.234Z,1.80
2023-02-25T19:24:27.421Z,1.60
2023-02-25T19:29:13.481Z,1.60
2023-02-25T19:34:05.889Z,1.80
2023-02-25T19:38:49.240Z,1.40
2023-02-25T19:43:41.333Z,1.60
2023-02-25T19:48:25.014Z,1.70
2023-02-25T19:53:11.220Z,2.30
2023-02-25T19:58:02.160Z,1.40
2023-02-25T20:02:51.333Z,1.60
2023-02-25T20:07:36.483Z,3.20
2023-02-25T20:12:24.960Z,1.47
2023-02-25T20:17:12.539Z,3.47
2023-02-25T20:22:04.179Z,1.90
2023-02-25T20:26:49.409Z,2.20
2023-02-25T20:31:38.728Z,2.70
2023-02-25T20:36:27.020Z,1.90
2023-02-25T20:41:14.099Z,1.90
2023-02-25T20:46:00.174Z,1.47
2023-02-25T20:50:49.814Z,1.60
2023-02-25T20:55:33.457Z,1.60
2023-02-25T21:00:21.824Z,1.90
2023-02-25T21:05:12.800Z,2.93
2023-02-25T21:10:02.382Z,2.67
2023-02-25T21:14:48.468Z,2.73
2023-02-25T21:19:39.465Z,2.40
2023-02-25T21:24:27.218Z,2.40
2023-02-25T21:29:14.236Z,2.87
2023-02-25T21:34:00.045Z,2.27
2023-02-25T21:38:52.658Z,2.07
2023-02-25T21:43:39.856Z,2.20
2023-02-25T21:48:27.089Z,2.47
2023-02-25T21:53:14.631Z,6.20
2023-02-25T21:58:03.521Z,2.93
2023-02-25T22:02:49.949Z,1.60
2023-02-25T22:07:40.693Z,3.37
2023-02-25T22:12:24.849Z,2.30
2023-02-25T22:17:13.828Z,2.37
2023-02-25T22:22:04.530Z,2.67
2023-02-25T22:32:21.708Z,2.00
2023-02-25T22:37:31.185Z,1.27
2023-02-25T22:47:56.441Z,1.67
2023-02-25T22:53:01.804Z,1.67
2023-02-25T22:57:49.245Z,1.70
2023-02-25T23:02:48.823Z,2.10
2023-02-25T23:13:11.633Z,1.73
2023-02-25T23:28:41.755Z,1.50
2023-02-25T23:45:03.670Z,1.80
2023-02-25T23:50:21.106Z,2.37
